^^
Station Historical Data
 
Daily Summary for December 13, 2017 Units:  English    Metric   Both
« Previous Day
Next Day »
Daily Weekly Monthly Yearly Custom
  Current: High: Low: Average:
Temperature: 20.5 °F 22.6 °F 20.5 °F 21.3 °F
Dew Point: 1.6 °F 3.9 °F 1.6 °F 2.6 °F
Humidity: 43% 46% 42% 44%
Wind Speed: 4.9mph 23.0mph 0.9mph 8mph
Wind Gust: 14.0mph 24.0mph - -
WindWNW - - WNW
Pressure: 29.82 in 29.82 in 29.75 in -
Precipitation: 0.00 in      
Historical Graphs
 
 
Tabular Data for December 13, 2017
Time Temperature Dew Point Pressure Wind Wind Speed Wind Gust Humidity Rainfall Rate (Hourly) solar Conditions
00:04 22.6 °F 3.0 °F 29.75 in West 8.1 mph 14.0 mph 42% 0.00 in meteobridge W/m2
00:09 22.5 °F 2.8 °F 29.75 in NW 6.0 mph 18.0 mph 42% 0.00 in meteobridge W/m2
00:19 22.3 °F 2.7 °F 29.75 in WNW 19.0 mph 19.0 mph 42% 0.00 in meteobridge W/m2
00:24 22.1 °F 2.5 °F 29.75 in NW 23.0 mph 23.0 mph 42% 0.00 in meteobridge W/m2
00:29 21.9 °F 2.3 °F 29.75 in NW 8.9 mph 19.0 mph 42% 0.00 in meteobridge W/m2
00:34 21.9 °F 2.8 °F 29.75 in WNW 4.9 mph 17.0 mph 43% 0.00 in meteobridge W/m2
00:39 21.7 °F 2.7 °F 29.75 in West 13.0 mph 16.0 mph 43% 0.00 in meteobridge W/m2
00:44 21.7 °F 2.7 °F 29.75 in West 4.0 mph 11.0 mph 43% 0.00 in meteobridge W/m2
00:49 21.7 °F 2.7 °F 29.75 in West 4.0 mph 24.0 mph 43% 0.00 in meteobridge W/m2
00:54 21.6 °F 2.5 °F 29.75 in WNW 6.0 mph 16.0 mph 43% 0.00 in meteobridge W/m2
01:00 21.6 °F 2.5 °F 29.76 in WNW 8.9 mph 17.0 mph 43% 0.00 in meteobridge W/m2
01:05 21.6 °F 2.5 °F 29.76 in WNW 12.1 mph 23.0 mph 43% 0.00 in meteobridge W/m2
01:10 21.4 °F 2.3 °F 29.76 in NW 8.1 mph 12.0 mph 43% 0.00 in meteobridge W/m2
01:15 21.4 °F 3.4 °F 29.77 in West 8.9 mph 10.0 mph 45% 0.00 in meteobridge W/m2
01:25 21.2 °F 3.2 °F 29.77 in WNW 2.0 mph 9.0 mph 45% 0.00 in meteobridge W/m2
01:30 21.2 °F 3.6 °F 29.77 in NW 2.9 mph 7.0 mph 46% 0.00 in meteobridge W/m2
01:40 21.0 °F 3.0 °F 29.77 in WNW 8.9 mph 19.0 mph 45% 0.00 in meteobridge W/m2
01:45 21.0 °F 3.0 °F 29.77 in North 0.9 mph 14.0 mph 45% 0.00 in meteobridge W/m2
01:50 21.0 °F 3.0 °F 29.78 in WNW 6.0 mph 14.0 mph 45% 0.00 in meteobridge W/m2
01:55 21.0 °F 3.0 °F 29.78 in WSW 0.9 mph 10.0 mph 45% 0.00 in meteobridge W/m2
02:00 21.6 °F 3.9 °F 29.78 in WNW 12.1 mph 16.0 mph 46% 0.00 in meteobridge W/m2
02:05 21.6 °F 3.9 °F 29.78 in WNW 12.1 mph 12.1 mph 46% 0.00 in meteobridge W/m2
05:04 20.5 °F 1.6 °F 29.80 in WNW 8.9 mph 17.0 mph 43% 0.00 in meteobridge W/m2
05:09 20.5 °F 1.6 °F 29.80 in WNW 8.1 mph 17.0 mph 43% 0.00 in meteobridge W/m2
05:14 20.5 °F 1.6 °F 29.80 in SW 4.0 mph 16.0 mph 43% 0.00 in meteobridge W/m2
05:19 20.5 °F 1.6 °F 29.80 in NW 8.1 mph 11.0 mph 43% 0.00 in meteobridge W/m2
05:24 20.5 °F 1.6 °F 29.81 in WNW 11.0 mph 19.0 mph 43% 0.00 in meteobridge W/m2
05:34 20.5 °F 1.6 °F 29.82 in WNW 6.9 mph 17.0 mph 43% 0.00 in meteobridge W/m2
05:39 20.5 °F 1.6 °F 29.82 in WNW 8.1 mph 11.0 mph 43% 0.00 in meteobridge W/m2
05:44 20.5 °F 1.6 °F 29.82 in WNW 4.9 mph 14.0 mph 43% 0.00 in meteobridge W/m2
Fairfax, VA, USA
Compliments of Weather Underground - 2 mb